PWSweather.com
Personal Weather Stations
Station Observations
IHTIMAN1
Neighbourhood 1, IhtimanBG 2050

Neighbourhood 1IhtimanBG 2050

Lat: 42.436852, Lon: 23.817921

Elevation: 2066

Station Type: Oregon Scientific WMR968

http://ihtiman-meteo.com

High Low Average
Temperature 75.9°F24.4°C 47.8°F8.8°C 60.7°F15.9°C
Dew Point 55.0°F12.8°C 46.4°F8.0°C 50.6°F10.3°C
Winds 9.2 mph 14.8 kmh Calm Calm 3.0 mph SW4.8 kmh SW
Wind Gusts 12.7 mph20.4 kmh -- 4.0 mph6.4 kmh
Humidity 98% 39% 73%
Pressure 29.91 in1012.9 mb 29.86 in1011.2 mb -
Precipitation 0.28 in7.1 mm - -
Hour Temp Dew Point Humidity Winds Wind Gusts Pressure Precip Precip Rate Daily Precip Total
12:00 AM 55.0°F12.8°C 50.3°F10.2°C 84% Calm Calm -- 29.91 in1012.9 mb - 0.00 in0.0 mm 0.00 in0.0 mm
12:10 AM 54.5°F12.5°C 50.1°F10.1°C 85% Calm Calm -- 29.91 in1012.9 mb - 0.00 in0.0 mm 0.00 in0.0 mm
12:20 AM 53.6°F12.0°C 49.5°F9.7°C 86% Calm Calm -- 29.91 in1012.9 mb - 0.00 in0.0 mm 0.00 in0.0 mm
12:30 AM 53.1°F11.7°C 49.6°F9.8°C 88% Calm Calm -- 29.91 in1012.9 mb - 0.00 in0.0 mm 0.00 in0.0 mm
12:40 AM 52.5°F11.4°C 49.4°F9.7°C 89% Calm Calm -- 29.91 in1012.9 mb - 0.00 in0.0 mm 0.00 in0.0 mm
12:50 AM 52.2°F11.2°C 49.0°F9.4°C 89% Calm Calm -- 29.91 in1012.9 mb - 0.00 in0.0 mm 0.00 in0.0 mm
01:00 AM 52.0°F11.1°C 49.1°F9.5°C 90% Calm Calm -- 29.91 in1012.9 mb - 0.00 in0.0 mm 0.00 in0.0 mm
01:10 AM 52.2°F11.2°C 49.6°F9.8°C 91% Calm Calm -- 29.91 in1012.9 mb - 0.00 in0.0 mm 0.00 in0.0 mm
01:20 AM 51.8°F11.0°C 49.8°F9.9°C 93% Calm Calm -- 29.91 in1012.9 mb - 0.00 in0.0 mm 0.00 in0.0 mm
01:30 AM 51.4°F10.8°C 49.8°F9.9°C 94% Calm Calm -- 29.91 in1012.9 mb - 0.00 in0.0 mm 0.00 in0.0 mm
01:40 AM 51.1°F10.6°C 49.4°F9.7°C 94% Calm Calm -- 29.91 in1012.9 mb - 0.00 in0.0 mm 0.00 in0.0 mm
01:50 AM 51.1°F10.6°C 49.7°F9.8°C 95% Calm Calm -- 29.91 in1012.9 mb - 0.00 in0.0 mm 0.00 in0.0 mm
02:00 AM 51.4°F10.8°C 50.3°F10.2°C 96% Calm Calm -- 29.91 in1012.9 mb - 0.00 in0.0 mm 0.00 in0.0 mm
02:10 AM 51.6°F10.9°C 50.5°F10.3°C 96% Calm Calm -- 29.91 in1012.9 mb - 0.00 in0.0 mm 0.00 in0.0 mm
02:20 AM 51.8°F11.0°C 50.7°F10.4°C 96% Calm Calm -- 29.91 in1012.9 mb - 0.00 in0.0 mm 0.00 in0.0 mm
02:30 AM 51.6°F10.9°C 50.8°F10.4°C 97% Calm Calm -- 29.91 in1012.9 mb - 0.00 in0.0 mm 0.00 in0.0 mm
02:40 AM 51.6°F10.9°C 50.8°F10.4°C 97% Calm Calm -- 29.91 in1012.9 mb - 0.00 in0.0 mm 0.00 in0.0 mm
02:50 AM 51.3°F10.7°C 50.4°F10.2°C 97% Calm Calm -- 29.91 in1012.9 mb - 0.00 in0.0 mm 0.00 in0.0 mm
03:00 AM 50.7°F10.4°C 49.9°F9.9°C 97% Calm Calm -- 29.91 in1012.9 mb - 0.00 in0.0 mm 0.00 in0.0 mm
03:10 AM 50.4°F10.2°C 49.5°F9.7°C 97% Calm Calm -- 29.91 in1012.9 mb - 0.00 in0.0 mm 0.00 in0.0 mm
03:20 AM 50.2°F10.1°C 49.3°F9.6°C 97% Calm Calm -- 29.88 in1011.9 mb - 0.00 in0.0 mm 0.00 in0.0 mm
03:30 AM 49.8°F9.9°C 49.0°F9.4°C 97% Calm Calm -- 29.88 in1011.9 mb - 0.00 in0.0 mm 0.00 in0.0 mm
03:40 AM 49.6°F9.8°C 48.8°F9.3°C 97% Calm Calm -- 29.88 in1011.9 mb - 0.00 in0.0 mm 0.00 in0.0 mm
03:50 AM 49.3°F9.6°C 48.5°F9.2°C 97% Calm Calm -- 29.88 in1011.9 mb - 0.00 in0.0 mm 0.00 in0.0 mm
04:00 AM 49.3°F9.6°C 48.5°F9.2°C 97% Calm Calm -- 29.88 in1011.9 mb - 0.00 in0.0 mm 0.00 in0.0 mm
04:10 AM 48.9°F9.4°C 48.1°F8.9°C 97% Calm Calm -- 29.88 in1011.9 mb - 0.00 in0.0 mm 0.00 in0.0 mm
04:20 AM 48.7°F9.3°C 47.9°F8.8°C 97% Calm Calm -- 29.88 in1011.9 mb - 0.00 in0.0 mm 0.00 in0.0 mm
04:30 AM 48.2°F9.0°C 47.4°F8.6°C 97% Calm Calm -- 29.88 in1011.9 mb - 0.00 in0.0 mm 0.00 in0.0 mm
04:40 AM 47.9°F8.8°C 47.4°F8.6°C 98% Calm Calm -- 29.88 in1011.9 mb - 0.00 in0.0 mm 0.00 in0.0 mm
04:50 AM 47.8°F8.8°C 47.3°F8.5°C 98% Calm Calm -- 29.88 in1011.9 mb - 0.00 in0.0 mm 0.00 in0.0 mm
05:00 AM 47.8°F8.8°C 47.3°F8.5°C 98% Calm Calm -- 29.88 in1011.9 mb - 0.00 in0.0 mm 0.00 in0.0 mm
05:10 AM 47.8°F8.8°C 47.3°F8.5°C 98% Calm Calm -- 29.88 in1011.9 mb - 0.00 in0.0 mm 0.00 in0.0 mm
05:20 AM 47.8°F8.8°C 47.3°F8.5°C 98% Calm Calm -- 29.88 in1011.9 mb - 0.00 in0.0 mm 0.00 in0.0 mm
05:30 AM 47.8°F8.8°C 47.3°F8.5°C 98% Calm Calm -- 29.88 in1011.9 mb - 0.00 in0.0 mm 0.00 in0.0 mm
05:40 AM 47.8°F8.8°C 47.3°F8.5°C 98% Calm Calm -- 29.88 in1011.9 mb - 0.00 in0.0 mm 0.00 in0.0 mm
05:50 AM 47.8°F8.8°C 47.3°F8.5°C 98% Calm Calm -- 29.88 in1011.9 mb - 0.00 in0.0 mm 0.00 in0.0 mm
06:00 AM 47.8°F8.8°C 47.3°F8.5°C 98% Calm Calm -- 29.91 in1012.9 mb - 0.00 in0.0 mm 0.00 in0.0 mm
06:20 AM 47.8°F8.8°C 47.3°F8.5°C 98% Calm Calm -- 29.91 in1012.9 mb - 0.00 in0.0 mm 0.00 in0.0 mm
06:30 AM 51.8°F11.0°C 51.3°F10.7°C 98% Calm Calm -- 29.91 in1012.9 mb - 0.00 in0.0 mm 0.00 in0.0 mm
06:40 AM 51.8°F11.0°C 51.3°F10.7°C 98% Calm Calm -- 29.91 in1012.9 mb - 0.00 in0.0 mm 0.00 in0.0 mm
06:50 AM 53.6°F12.0°C 53.0°F11.7°C 98% Calm Calm -- 29.91 in1012.9 mb - 0.00 in0.0 mm 0.00 in0.0 mm
07:00 AM 53.6°F12.0°C 53.0°F11.7°C 98% Calm Calm -- 29.91 in1012.9 mb - 0.00 in0.0 mm 0.00 in0.0 mm
07:10 AM 53.6°F12.0°C 53.0°F11.7°C 98% Calm Calm -- 29.91 in1012.9 mb - 0.00 in0.0 mm 0.00 in0.0 mm
07:20 AM 53.6°F12.0°C 53.0°F11.7°C 98% Calm Calm -- 29.91 in1012.9 mb - 0.00 in0.0 mm 0.00 in0.0 mm
07:30 AM 59.9°F15.5°C 54.7°F12.6°C 83% Calm Calm -- 29.91 in1012.9 mb - 0.00 in0.0 mm 0.00 in0.0 mm
07:40 AM 61.2°F16.2°C 52.1°F11.2°C 72% Calm Calm -- 29.91 in1012.9 mb - 0.00 in0.0 mm 0.00 in0.0 mm
07:50 AM 61.7°F16.5°C 51.8°F11.0°C 70% Calm Calm -- 29.91 in1012.9 mb - 0.00 in0.0 mm 0.00 in0.0 mm
08:00 AM 62.8°F17.1°C 52.9°F11.6°C 70% Calm Calm -- 29.91 in1012.9 mb - 0.00 in0.0 mm 0.00 in0.0 mm
08:10 AM 63.6°F17.6°C 52.4°F11.3°C 67% 6.9 mph 11.1 kmh 11.5 mph18.5 kmh 29.91 in1012.9 mb - 0.00 in0.0 mm 0.00 in0.0 mm
08:20 AM 63.7°F17.6°C 51.3°F10.7°C 64% 5.8 mph 9.3 kmh 8.1 mph13.0 kmh 29.91 in1012.9 mb - 0.00 in0.0 mm 0.00 in0.0 mm
08:30 AM 65.0°F18.3°C 52.1°F11.2°C 63% 6.9 mph NNW11.1 kmh NNW 8.1 mph13.0 kmh 29.91 in1012.9 mb - 0.00 in0.0 mm 0.00 in0.0 mm
08:40 AM 65.2°F18.4°C 51.8°F11.0°C 62% 8.1 mph NW13.0 kmh NW 12.7 mph20.4 kmh 29.91 in1012.9 mb - 0.00 in0.0 mm 0.00 in0.0 mm
08:50 AM 65.5°F18.6°C 51.7°F10.9°C 61% 6.9 mph N11.1 kmh N 9.2 mph14.8 kmh 29.91 in1012.9 mb - 0.00 in0.0 mm 0.00 in0.0 mm
09:00 AM 65.8°F18.8°C 51.6°F10.9°C 60% 6.9 mph NNW11.1 kmh NNW 11.5 mph18.5 kmh 29.91 in1012.9 mb - 0.00 in0.0 mm 0.00 in0.0 mm
09:10 AM 65.8°F18.8°C 51.6°F10.9°C 60% 5.8 mph NNW9.3 kmh NNW 12.7 mph20.4 kmh 29.91 in1012.9 mb - 0.00 in0.0 mm 0.00 in0.0 mm
09:20 AM 67.1°F19.5°C 51.8°F11.0°C 58% 6.9 mph N11.1 kmh N 8.1 mph13.0 kmh 29.91 in1012.9 mb - 0.00 in0.0 mm 0.00 in0.0 mm
09:30 AM 67.5°F19.7°C 52.2°F11.2°C 58% 5.8 mph NNW9.3 kmh NNW 8.1 mph13.0 kmh 29.91 in1012.9 mb - 0.00 in0.0 mm 0.00 in0.0 mm
09:40 AM 67.5°F19.7°C 52.2°F11.2°C 58% 5.8 mph N9.3 kmh N 8.1 mph13.0 kmh 29.91 in1012.9 mb - 0.00 in0.0 mm 0.00 in0.0 mm
09:50 AM 67.5°F19.7°C 52.2°F11.2°C 58% 6.9 mph N11.1 kmh N 11.5 mph18.5 kmh 29.91 in1012.9 mb - 0.00 in0.0 mm 0.00 in0.0 mm
10:00 AM 67.5°F19.7°C 52.2°F11.2°C 58% 8.1 mph NNW13.0 kmh NNW 10.4 mph16.7 kmh 29.91 in1012.9 mb - 0.00 in0.0 mm 0.00 in0.0 mm
10:10 AM 67.5°F19.7°C 52.2°F11.2°C 58% 6.9 mph N11.1 kmh N 9.2 mph14.8 kmh 29.91 in1012.9 mb - 0.00 in0.0 mm 0.00 in0.0 mm
10:20 AM 69.0°F20.6°C 52.1°F11.2°C 55% 6.9 mph NNW11.1 kmh NNW 9.2 mph14.8 kmh 29.91 in1012.9 mb - 0.00 in0.0 mm 0.00 in0.0 mm
10:30 AM 69.8°F21.0°C 51.9°F11.1°C 53% 5.8 mph N9.3 kmh N 8.1 mph13.0 kmh 29.91 in1012.9 mb - 0.00 in0.0 mm 0.00 in0.0 mm
10:40 AM 70.2°F21.2°C 51.2°F10.7°C 51% 9.2 mph NW14.8 kmh NW 12.7 mph20.4 kmh 29.91 in1012.9 mb - 0.00 in0.0 mm 0.00 in0.0 mm
10:50 AM 70.7°F21.5°C 51.2°F10.7°C 50% 5.8 mph NW9.3 kmh NW 8.1 mph13.0 kmh 29.91 in1012.9 mb - 0.00 in0.0 mm 0.00 in0.0 mm
11:00 AM 70.7°F21.5°C 51.1°F10.6°C 50% 5.8 mph NW9.3 kmh NW 5.8 mph9.3 kmh 29.91 in1012.9 mb - 0.00 in0.0 mm 0.00 in0.0 mm
11:10 AM 71.2°F21.8°C 51.1°F10.6°C 49% 4.6 mph N7.4 kmh N 11.5 mph18.5 kmh 29.91 in1012.9 mb - 0.00 in0.0 mm 0.00 in0.0 mm
11:20 AM 71.2°F21.8°C 51.1°F10.6°C 49% 6.9 mph N11.1 kmh N 12.7 mph20.4 kmh 29.91 in1012.9 mb - 0.00 in0.0 mm 0.00 in0.0 mm
11:30 AM 71.6°F22.0°C 50.8°F10.4°C 48% 5.8 mph NE9.3 kmh NE 10.4 mph16.7 kmh 29.91 in1012.9 mb - 0.00 in0.0 mm 0.00 in0.0 mm
11:40 AM 72.3°F22.4°C 50.4°F10.2°C 46% 6.9 mph NW11.1 kmh NW 9.2 mph14.8 kmh 29.91 in1012.9 mb - 0.00 in0.0 mm 0.00 in0.0 mm
11:50 AM 72.9°F22.7°C 50.9°F10.5°C 46% 6.9 mph N11.1 kmh N 12.7 mph20.4 kmh 29.91 in1012.9 mb - 0.00 in0.0 mm 0.00 in0.0 mm
12:00 PM 72.2°F22.3°C 49.6°F9.8°C 45% 8.1 mph N13.0 kmh N 10.4 mph16.7 kmh 29.91 in1012.9 mb - 0.00 in0.0 mm 0.00 in0.0 mm
12:10 PM 73.7°F23.2°C 49.8°F9.9°C 43% 5.8 mph NNW9.3 kmh NNW 8.1 mph13.0 kmh 29.91 in1012.9 mb - 0.00 in0.0 mm 0.00 in0.0 mm
12:20 PM 73.1°F22.8°C 49.9°F9.9°C 44% 6.9 mph NNW11.1 kmh NNW 12.7 mph20.4 kmh 29.91 in1012.9 mb - 0.00 in0.0 mm 0.00 in0.0 mm
12:30 PM 74.4°F23.6°C 50.4°F10.2°C 43% 6.9 mph NNE11.1 kmh NNE 9.2 mph14.8 kmh 29.88 in1011.9 mb - 0.00 in0.0 mm 0.00 in0.0 mm
12:40 PM 75.9°F24.4°C 50.5°F10.3°C 41% 5.8 mph NW9.3 kmh NW 9.2 mph14.8 kmh 29.88 in1011.9 mb - 0.00 in0.0 mm 0.00 in0.0 mm
12:50 PM 71.3°F21.8°C 47.6°F8.7°C 43% 6.9 mph NNW11.1 kmh NNW 11.5 mph18.5 kmh 29.88 in1011.9 mb - 0.00 in0.0 mm 0.00 in0.0 mm
01:00 PM 70.8°F21.6°C 48.4°F9.1°C 45% 5.8 mph N9.3 kmh N 10.4 mph16.7 kmh 29.88 in1011.9 mb - 0.00 in0.0 mm 0.00 in0.0 mm
01:10 PM 70.2°F21.2°C 47.2°F8.4°C 44% 6.9 mph N11.1 kmh N 9.2 mph14.8 kmh 29.88 in1011.9 mb - 0.00 in0.0 mm 0.00 in0.0 mm
01:20 PM 69.9°F21.1°C 48.2°F9.0°C 46% Calm Calm 3.5 mph5.6 kmh 29.88 in1011.9 mb - 0.00 in0.0 mm 0.00 in0.0 mm
01:30 PM 70.2°F21.2°C 47.8°F8.8°C 45% 4.6 mph NW7.4 kmh NW 5.8 mph9.3 kmh 29.88 in1011.9 mb - 0.00 in0.0 mm 0.00 in0.0 mm
01:50 PM 73.1°F22.8°C 48.6°F9.2°C 42% 3.5 mph NW5.6 kmh NW 8.1 mph13.0 kmh 29.88 in1011.9 mb - 0.00 in0.0 mm 0.00 in0.0 mm
02:00 PM 74.6°F23.7°C 50.0°F10.0°C 42% 4.6 mph N7.4 kmh N 8.1 mph13.0 kmh 29.88 in1011.9 mb - 0.00 in0.0 mm 0.00 in0.0 mm
02:10 PM 74.1°F23.4°C 47.5°F8.6°C 39% 6.9 mph NW11.1 kmh NW 12.7 mph20.4 kmh 29.88 in1011.9 mb - 0.00 in0.0 mm 0.00 in0.0 mm
02:20 PM 71.7°F22.1°C 47.3°F8.5°C 42% 3.5 mph NNW5.6 kmh NNW 5.8 mph9.3 kmh 29.88 in1011.9 mb - 0.00 in0.0 mm 0.00 in0.0 mm
02:30 PM 71.5°F21.9°C 47.2°F8.4°C 42% 4.6 mph NNW7.4 kmh NNW 5.8 mph9.3 kmh 29.86 in1011.2 mb - 0.00 in0.0 mm 0.00 in0.0 mm
02:40 PM 71.4°F21.9°C 47.1°F8.4°C 42% 1.2 mph NW1.9 kmh NW 8.1 mph13.0 kmh 29.86 in1011.2 mb - 0.00 in0.0 mm 0.00 in0.0 mm
02:50 PM 70.6°F21.4°C 46.4°F8.0°C 42% 3.5 mph SW5.6 kmh SW 5.8 mph9.3 kmh 29.86 in1011.2 mb - 0.00 in0.0 mm 0.00 in0.0 mm
03:00 PM 67.8°F19.9°C 51.1°F10.6°C 55% 5.8 mph SW9.3 kmh SW 9.2 mph14.8 kmh 29.86 in1011.2 mb - 0.00 in0.0 mm 0.00 in0.0 mm
03:10 PM 67.9°F19.9°C 52.6°F11.4°C 58% 6.9 mph S11.1 kmh S 8.1 mph13.0 kmh 29.86 in1011.2 mb - 0.00 in0.0 mm 0.00 in0.0 mm
03:20 PM 67.8°F19.9°C 52.5°F11.4°C 58% 5.8 mph SW9.3 kmh SW 9.2 mph14.8 kmh 29.86 in1011.2 mb - 0.00 in0.0 mm 0.00 in0.0 mm
03:30 PM 67.8°F19.9°C 52.5°F11.4°C 58% 6.9 mph SW11.1 kmh SW 11.5 mph18.5 kmh 29.86 in1011.2 mb - 0.00 in0.0 mm 0.00 in0.0 mm
03:40 PM 68.2°F20.1°C 52.4°F11.3°C 57% 5.8 mph SW9.3 kmh SW 10.4 mph16.7 kmh 29.86 in1011.2 mb - 0.00 in0.0 mm 0.00 in0.0 mm
03:50 PM 67.2°F19.6°C 51.5°F10.8°C 57% 5.8 mph S9.3 kmh S 8.1 mph13.0 kmh 29.86 in1011.2 mb - 0.00 in0.0 mm 0.00 in0.0 mm
04:00 PM 67.3°F19.6°C 51.0°F10.6°C 56% 5.8 mph SSW9.3 kmh SSW 8.1 mph13.0 kmh 29.86 in1011.2 mb - 0.00 in0.0 mm 0.00 in0.0 mm
04:10 PM 67.1°F19.5°C 50.4°F10.2°C 55% 4.6 mph SW7.4 kmh SW 5.8 mph9.3 kmh 29.86 in1011.2 mb - 0.00 in0.0 mm 0.00 in0.0 mm
04:20 PM 66.4°F19.1°C 50.2°F10.1°C 56% 3.5 mph SW5.6 kmh SW 4.6 mph7.4 kmh 29.86 in1011.2 mb - 0.00 in0.0 mm 0.00 in0.0 mm
04:30 PM 65.7°F18.7°C 48.1°F8.9°C 53% 3.5 mph WSW5.6 kmh WSW 5.8 mph9.3 kmh 29.86 in1011.2 mb - 0.00 in0.0 mm 0.00 in0.0 mm
04:40 PM 65.8°F18.8°C 47.7°F8.7°C 52% 3.5 mph WNW5.6 kmh WNW 4.6 mph7.4 kmh 29.86 in1011.2 mb - 0.00 in0.0 mm 0.00 in0.0 mm
04:50 PM 65.0°F18.3°C 48.0°F8.9°C 54% 2.3 mph NW3.7 kmh NW 3.5 mph5.6 kmh 29.86 in1011.2 mb - 0.00 in0.0 mm 0.00 in0.0 mm
05:00 PM 64.8°F18.2°C 50.5°F10.3°C 60% 4.6 mph NNW7.4 kmh NNW 5.8 mph9.3 kmh 29.86 in1011.2 mb - 0.00 in0.0 mm 0.00 in0.0 mm
05:10 PM 65.2°F18.4°C 51.0°F10.6°C 60% 3.5 mph N5.6 kmh N 5.8 mph9.3 kmh 29.86 in1011.2 mb - 0.00 in0.0 mm 0.00 in0.0 mm
05:20 PM 65.6°F18.7°C 51.8°F11.0°C 61% 3.5 mph NNW5.6 kmh NNW 8.1 mph13.0 kmh 29.86 in1011.2 mb - 0.00 in0.0 mm 0.00 in0.0 mm
05:30 PM 64.4°F18.0°C 49.8°F9.9°C 59% 6.9 mph NNW11.1 kmh NNW 9.2 mph14.8 kmh 29.86 in1011.2 mb - 0.00 in0.0 mm 0.00 in0.0 mm
05:40 PM 64.4°F18.0°C 51.5°F10.8°C 63% 8.1 mph N13.0 kmh N 10.4 mph16.7 kmh 29.86 in1011.2 mb - 0.00 in0.0 mm 0.00 in0.0 mm
05:50 PM 64.4°F18.0°C 50.6°F10.3°C 61% 4.6 mph N7.4 kmh N 5.8 mph9.3 kmh 29.86 in1011.2 mb - 0.00 in0.0 mm 0.00 in0.0 mm
06:00 PM 65.1°F18.4°C 49.5°F9.7°C 57% 3.5 mph N5.6 kmh N 5.8 mph9.3 kmh 29.86 in1011.2 mb - 0.00 in0.0 mm 0.00 in0.0 mm
06:10 PM 65.5°F18.6°C 50.4°F10.2°C 58% 2.3 mph NW3.7 kmh NW 5.8 mph9.3 kmh 29.86 in1011.2 mb - 0.00 in0.0 mm 0.00 in0.0 mm
06:20 PM 64.5°F18.1°C 48.4°F9.1°C 56% 2.3 mph NW3.7 kmh NW 2.3 mph3.7 kmh 29.86 in1011.2 mb - 0.00 in0.0 mm 0.00 in0.0 mm
06:30 PM 63.9°F17.7°C 49.3°F9.6°C 59% 2.3 mph NW3.7 kmh NW 4.6 mph7.4 kmh 29.86 in1011.2 mb - 0.00 in0.0 mm 0.00 in0.0 mm
06:40 PM 63.5°F17.5°C 49.8°F9.9°C 61% 4.6 mph WSW7.4 kmh WSW 5.8 mph9.3 kmh 29.86 in1011.2 mb - 0.00 in0.0 mm 0.00 in0.0 mm
06:50 PM 63.0°F17.2°C 51.0°F10.6°C 65% 3.5 mph W5.6 kmh W 3.5 mph5.6 kmh 29.86 in1011.2 mb - 0.00 in0.0 mm 0.00 in0.0 mm
07:00 PM 62.8°F17.1°C 52.1°F11.2°C 68% 3.5 mph S5.6 kmh S 4.6 mph7.4 kmh 29.86 in1011.2 mb - 0.00 in0.0 mm 0.00 in0.0 mm
07:10 PM 62.6°F17.0°C 51.9°F11.1°C 68% 3.5 mph S5.6 kmh S 5.8 mph9.3 kmh 29.86 in1011.2 mb - 0.00 in0.0 mm 0.00 in0.0 mm
07:20 PM 62.1°F16.7°C 51.8°F11.0°C 69% 3.5 mph SE5.6 kmh SE 3.5 mph5.6 kmh 29.86 in1011.2 mb - 0.00 in0.0 mm 0.00 in0.0 mm
07:30 PM 61.8°F16.6°C 50.7°F10.4°C 67% 3.5 mph SE5.6 kmh SE 5.8 mph9.3 kmh 29.86 in1011.2 mb - 0.00 in0.0 mm 0.00 in0.0 mm
07:40 PM 61.3°F16.3°C 49.9°F9.9°C 66% 3.5 mph SE5.6 kmh SE 5.8 mph9.3 kmh 29.86 in1011.2 mb - 0.00 in0.0 mm 0.00 in0.0 mm
07:50 PM 61.3°F16.3°C 49.9°F9.9°C 66% 3.5 mph SE5.6 kmh SE 5.8 mph9.3 kmh 29.86 in1011.2 mb - 0.00 in0.0 mm 0.00 in0.0 mm
08:00 PM 60.6°F15.9°C 50.4°F10.2°C 69% 1.2 mph SSE1.9 kmh SSE 3.5 mph5.6 kmh 29.88 in1011.9 mb - 0.00 in0.0 mm 0.00 in0.0 mm
08:10 PM 60.4°F15.8°C 51.0°F10.6°C 71% 3.5 mph S5.6 kmh S 5.8 mph9.3 kmh 29.88 in1011.9 mb - 0.00 in0.0 mm 0.00 in0.0 mm
08:20 PM 60.4°F15.8°C 51.4°F10.8°C 72% 3.5 mph SE5.6 kmh SE 3.5 mph5.6 kmh 29.88 in1011.9 mb - 0.00 in0.0 mm 0.00 in0.0 mm
08:30 PM 60.1°F15.6°C 51.8°F11.0°C 74% 3.5 mph SSE5.6 kmh SSE 5.8 mph9.3 kmh 29.88 in1011.9 mb - 0.00 in0.0 mm 0.00 in0.0 mm
08:40 PM 59.5°F15.3°C 51.6°F10.9°C 75% 4.6 mph SE7.4 kmh SE 8.1 mph13.0 kmh 29.88 in1011.9 mb - 0.00 in0.0 mm 0.00 in0.0 mm
08:50 PM 59.1°F15.1°C 51.5°F10.8°C 76% 3.5 mph ESE5.6 kmh ESE 4.6 mph7.4 kmh 29.88 in1011.9 mb - 0.00 in0.0 mm 0.00 in0.0 mm
09:00 PM 59.0°F15.0°C 51.8°F11.0°C 77% Calm Calm 3.5 mph5.6 kmh 29.88 in1011.9 mb - 0.00 in0.0 mm 0.00 in0.0 mm
09:10 PM 58.8°F14.9°C 52.0°F11.1°C 78% Calm Calm -- 29.88 in1011.9 mb - 0.00 in0.0 mm 0.00 in0.0 mm
09:20 PM 58.9°F14.9°C 52.4°F11.3°C 79% Calm Calm -- 29.88 in1011.9 mb - 0.00 in0.0 mm 0.00 in0.0 mm
09:30 PM 58.8°F14.9°C 52.3°F11.3°C 79% 3.5 mph N5.6 kmh N 4.6 mph7.4 kmh 29.91 in1012.9 mb - 0.05 in1.3 mm 0.05 in1.3 mm
09:40 PM 57.8°F14.3°C 53.0°F11.7°C 84% Calm Calm -- 29.91 in1012.9 mb - 0.14 in3.6 mm 0.14 in3.6 mm
09:50 PM 57.3°F14.1°C 53.8°F12.1°C 88% 3.5 mph SE5.6 kmh SE 5.8 mph9.3 kmh 29.88 in1011.9 mb - 0.19 in4.8 mm 0.19 in4.8 mm
10:00 PM 56.7°F13.7°C 53.8°F12.1°C 90% Calm Calm 3.5 mph5.6 kmh 29.91 in1012.9 mb - 0.24 in6.1 mm 0.24 in6.1 mm
10:10 PM 56.7°F13.7°C 54.4°F12.4°C 92% Calm Calm -- 29.91 in1012.9 mb - 0.24 in6.1 mm 0.24 in6.1 mm
10:20 PM 56.7°F13.7°C 54.4°F12.4°C 92% Calm Calm -- 29.91 in1012.9 mb - 0.24 in6.1 mm 0.24 in6.1 mm
10:30 PM 56.7°F13.7°C 54.4°F12.4°C 92% 2.3 mph SSE3.7 kmh SSE 3.5 mph5.6 kmh 29.88 in1011.9 mb - 0.24 in6.1 mm 0.24 in6.1 mm
10:40 PM 56.7°F13.7°C 54.4°F12.4°C 92% Calm Calm -- 29.88 in1011.9 mb - 0.14 in3.6 mm 0.28 in7.1 mm
10:50 PM 56.7°F13.7°C 54.4°F12.4°C 92% 2.3 mph S3.7 kmh S 3.5 mph5.6 kmh 29.88 in1011.9 mb - 0.09 in2.3 mm 0.28 in7.1 mm
11:00 PM 56.7°F13.7°C 54.4°F12.4°C 92% 3.5 mph S5.6 kmh S 3.5 mph5.6 kmh 29.88 in1011.9 mb - 0.05 in1.3 mm 1.62 in41.1 mm
11:10 PM 56.7°F13.7°C 54.4°F12.4°C 92% Calm Calm 3.5 mph5.6 kmh 29.88 in1011.9 mb - 0.05 in1.3 mm 1.67 in42.4 mm
11:20 PM 56.7°F13.7°C 54.4°F12.4°C 92% Calm Calm -- 29.88 in1011.9 mb - 0.05 in1.3 mm 1.72 in43.7 mm
11:30 PM 56.7°F13.7°C 54.4°F12.4°C 92% Calm Calm -- 29.88 in1011.9 mb - 0.05 in1.3 mm 1.77 in45.0 mm
11:40 PM 56.7°F13.7°C 55.0°F12.8°C 94% Calm Calm -- 29.88 in1011.9 mb - 0.00 in0.0 mm 1.77 in45.0 mm
11:50 PM 54.9°F12.7°C 54.3°F12.4°C 98% Calm Calm -- 29.88 in1011.9 mb - 0.00 in0.0 mm 1.77 in45.0 mm